Ripley, Tennessee
Current Conditions -  °F | °C
As of 10:15 AM on Friday 26 Dec 2014 (Local Time) from KDYR Reporting Station
Clear Clear  
Wind Chill: 46°   Ceiling: Unl
Heat Index: 48°   Visibility: 10mi
Dew Point: 30°   Wind: 6mph
Humidity: 50%   Direction: 150°SSE
Pressure: 30.26"   Gusts: NA
Location:  35.75°N, 89.53°W
Report Text: KDYR 261615Z 15005KT 10SM CLR 09/M01 A3026 RMK AO1
Loading
Personal Weather Stations






























Interactive Weather Map New forecast layout! Learn more

10-Day Weather Forecast

Advertisements
Track Severe Weather on mobile